Aviation Digital Data Service (ADDS)

Output produced by METARs form (1715 UTC 16 June 2019)
found at http://www.aviationweather.gov/metar/data/
 
GBYD 161700Z 23010KT CAVOK 31/20 Q1012
TAF GBYD 161130Z 1612/1718 28008KT 9999 SCT010